Time;durP1;ratioP1;P1;durP2;ratioP2;P2;SDS_P1;SDS_P2;PMS_P1;PMS_P2;Temp;Humidity;BMP_temperature;BMP_pressure;BME280_temperature;BME280_humidity;BME280_pressure;Samples;Min_cycle;Max_cycle;Signal;HPM_P1;HPM_P2
2023/10/17 11:04:26;;;;;;;;;;;;;;;21.00;33.79;100225.59;5008664;27;3393332;-73
2023/10/17 11:06:54;;;;;;;;;;;;;;;21.11;34.00;100219.53;5129975;27;1264;-72
2023/10/17 11:09:24;;;;;;;;;;;;;;;20.80;34.37;100223.19;5129925;27;826;-71
2023/10/17 11:11:50;;;;;;;;;;;;;;;20.60;34.59;100224.38;5129760;27;1909;-72
2023/10/17 11:14:16;;;;;;;;;;;;;;;21.25;34.36;100207.69;5128543;28;1343;-71
2023/10/17 11:16:43;;;;;;;;;;;;;;;21.72;34.10;100208.50;5129833;27;846;-72
2023/10/17 11:19:26;;;;;;;;;;;;;;;22.19;33.64;100210.78;5129834;27;912;-74
2023/10/17 11:21:57;;;;;;;;;;;;;;;21.78;33.49;100196.13;5129618;27;854;-69
2023/10/17 11:24:26;;;;;;;;;;;;;;;21.37;33.88;100197.53;5129638;27;904;-73
2023/10/17 11:26:54;;;;;;;;;;;;;;;21.30;33.64;100198.63;5129664;27;855;-73
2023/10/17 11:29:26;;;;;;;;;;;;;;;21.03;34.40;100198.59;5128201;28;1414;-72
2023/10/17 11:31:54;;;;;;;;;;;;;;;21.23;34.70;100195.34;5128604;28;1882;-72
2023/10/17 11:34:30;;;;;;;;;;;;;;;21.08;34.83;100197.97;5128232;28;1387;-73
2023/10/17 11:37:03;;;;;;;;;;;;;;;21.12;34.52;100195.78;5128433;28;1198;-74
2023/10/17 11:39:40;;;;;;;;;;;;;;;21.00;34.53;100198.28;5129272;27;850;-73
2023/10/17 11:42:07;;;;;;;;;;;;;;;20.96;34.77;100196.88;5127945;28;1323;-70
2023/10/17 11:44:39;;;;;;;;;;;;;;;21.17;34.31;100195.19;5129209;27;890;-73
2023/10/17 11:47:20;;;;;;;;;;;;;;;21.50;33.28;100191.78;5129445;27;881;-72
2023/10/17 11:49:49;;;;;;;;;;;;;;;21.77;33.24;100188.97;5129395;27;882;-70
2023/10/17 11:52:16;;;;;;;;;;;;;;;21.55;33.52;100182.72;5128923;27;1905;-72
2023/10/17 11:55:20;;;;;;;;;;;;;;;21.12;34.23;100190.97;5127757;28;1301;-75
2023/10/17 11:57:49;;;;;;;;;;;;;;;21.35;34.20;100186.75;5129286;27;1220;-66
2023/10/17 12:02:50;;;;;;;;;;;;;;;21.07;34.18;100180.34;5128536;27;1234;-69
2023/10/17 12:05:18;;;;;;;;;;;;;;;21.52;34.22;100176.00;5115591;27;839;-68
2023/10/17 12:07:54;;;;;;;;;;;;;;;22.30;33.48;100170.91;5115057;28;919;-72
2023/10/17 12:10:21;;;;;;;;;;;;;;;22.06;34.00;100170.75;5115014;28;807;-71
2023/10/17 12:12:52;;;;;;;;;;;;;;;22.13;33.63;100164.03;5114904;28;1957;-67
2023/10/17 12:15:22;;;;;;;;;;;;;;;22.52;32.41;100167.81;5113651;28;1186;-71
2023/10/17 12:17:53;;;;;;;;;;;;;;;22.35;31.92;100156.16;5114987;28;835;-69
2023/10/17 12:20:28;;;;;;;;;;;;;;;21.91;32.60;100147.34;5113590;28;1329;-72
2023/10/17 12:22:55;;;;;;;;;;;;;;;21.62;33.73;100151.50;5114766;28;821;-72
2023/10/17 12:25:23;;;;;;;;;;;;;;;21.55;34.31;100158.22;5114768;28;782;-70
2023/10/17 12:27:52;;;;;;;;;;;;;;;21.23;34.38;100158.78;5113449;28;1039;-67
2023/10/17 12:30:28;;;;;;;;;;;;;;;21.21;34.43;100159.28;5114679;28;1294;-66
2023/10/17 12:32:57;;;;;;;;;;;;;;;20.38;36.27;100147.84;5114493;28;1937;-65
2023/10/17 12:35:27;;;;;;;;;;;;;;;19.78;37.30;100155.31;5114634;28;858;-65
2023/10/17 12:37:59;;;;;;;;;;;;;;;19.58;37.97;100154.81;5114433;28;835;-69
2023/10/17 12:40:26;;;;;;;;;;;;;;;19.38;38.52;100155.94;5113174;28;1316;-66
2023/10/17 12:42:55;;;;;;;;;;;;;;;19.31;39.00;100155.38;5114413;28;855;-66
2023/10/17 12:45:27;;;;;;;;;;;;;;;19.38;39.16;100150.31;5114353;28;935;-73
2023/10/17 12:47:54;;;;;;;;;;;;;;;20.43;38.09;100158.44;5112597;28;1043;-71
2023/10/17 12:50:27;;;;;;;;;;;;;;;21.49;36.17;100148.06;5114229;28;822;-71
2023/10/17 12:52:58;;;;;;;;;;;;;;;22.06;35.00;100159.50;5114112;28;1929;-68
2023/10/17 12:55:25;;;;;;;;;;;;;;;21.35;35.49;100146.63;5114085;28;901;-69
2023/10/17 12:57:51;;;;;;;;;;;;;;;20.88;35.95;100148.63;5114230;28;932;-69
2023/10/17 13:00:25;;;;;;;;;;;;;;;20.03;36.92;100142.34;5113992;28;835;-71
2023/10/17 13:02:52;;;;;;;;;;;;;;;19.76;37.77;100140.19;5113960;28;1227;-68
2023/10/17 13:05:20;;;;;;;;;;;;;;;20.53;37.08;100125.59;5114311;28;838;-70
2023/10/17 13:07:47;;;;;;;;;;;;;;;20.49;36.54;100120.09;5114115;28;1197;-73
2023/10/17 13:10:14;;;;;;;;;;;;;;;19.98;37.68;100128.94;5114203;28;889;-70
2023/10/17 13:12:40;;;;;;;;;;;;;;;19.47;37.86;100120.81;5113890;28;1956;-65
2023/10/17 13:15:08;;;;;;;;;;;;;;;19.16;38.64;100118.69;5113382;28;1193;-65
2023/10/17 13:17:35;;;;;;;;;;;;;;;18.94;39.08;100116.63;5113836;28;914;-73
2023/10/17 13:20:07;;;;;;;;;;;;;;;19.21;38.38;100123.72;5112639;28;1273;-72
2023/10/17 13:22:37;;;;;;;;;;;;;;;19.05;37.82;100123.88;5114071;28;890;-72
2023/10/17 13:25:05;;;;;;;;;;;;;;;18.60;38.16;100125.75;5112297;28;1201;-71
2023/10/17 13:27:33;;;;;;;;;;;;;;;18.10;38.99;100138.53;5113576;28;975;-70
2023/10/17 13:29:58;;;;;;;;;;;;;;;17.73;39.53;100133.19;5112305;28;1232;-72
2023/10/17 13:32:26;;;;;;;;;;;;;;;17.63;39.83;100133.50;5113449;28;1933;-72
2023/10/17 13:34:52;;;;;;;;;;;;;;;17.53;40.13;100122.16;5113484;28;832;-71
2023/10/17 13:37:19;;;;;;;;;;;;;;;17.38;40.80;100128.59;5112399;28;1305;-71
2023/10/17 13:42:50;;;;;;;;;;;;;;;17.09;42.06;100115.41;5103396;28;917;-72
2023/10/17 13:45:24;;;;;;;;;;;;;;;16.84;43.19;100104.91;5091206;28;1329;-72
2023/10/17 13:47:57;;;;;;;;;;;;;;;16.80;43.07;100104.19;5092794;28;870;-73
2023/10/17 13:50:26;;;;;;;;;;;;;;;16.73;43.16;100114.31;5092644;28;835;-71
2023/10/17 13:52:52;;;;;;;;;;;;;;;16.67;43.93;100123.66;5092783;28;1886;-71
2023/10/17 13:55:25;;;;;;;;;;;;;;;16.56;44.15;100134.25;5092992;28;816;-72
2023/10/17 13:57:55;;;;;;;;;;;;;;;16.44;44.52;100132.97;5092570;28;823;-71
2023/10/17 14:00:25;;;;;;;;;;;;;;;16.41;44.80;100134.63;5091167;28;1338;-70
2023/10/17 14:02:51;;;;;;;;;;;;;;;16.49;45.52;100140.81;5090922;28;1440;-72
2023/10/17 14:05:19;;;;;;;;;;;;;;;16.63;45.60;100140.47;5092652;28;882;-71
2023/10/17 14:07:48;;;;;;;;;;;;;;;16.77;45.16;100132.97;5091118;28;1214;-70
2023/10/17 14:10:15;;;;;;;;;;;;;;;16.87;45.17;100134.72;5092320;28;902;-72
2023/10/17 14:12:42;;;;;;;;;;;;;;;16.88;45.02;100119.56;5091087;28;1898;-71
2023/10/17 14:15:15;;;;;;;;;;;;;;;16.81;44.87;100119.72;5092262;28;846;-71
2023/10/17 14:17:45;;;;;;;;;;;;;;;16.75;44.51;100116.66;5092273;28;827;-70
2023/10/17 14:20:38;;;;;;;;;;;;;;;16.71;44.91;100118.75;5092419;28;886;-69
2023/10/17 14:23:16;;;;;;;;;;;;;;;16.68;44.94;100114.03;5092222;28;1427;-70
2023/10/17 14:26:07;;;;;;;;;;;;;;;16.63;45.13;100112.56;5090923;28;1133;-71
2023/10/17 14:28:34;;;;;;;;;;;;;;;16.58;45.13;100131.81;5091828;28;855;-72
2023/10/17 14:31:05;;;;;;;;;;;;;;;16.48;45.57;100128.88;5092021;28;944;-69
2023/10/17 14:33:32;;;;;;;;;;;;;;;16.31;45.73;100122.47;5092174;28;1881;-71
2023/10/17 14:36:02;;;;;;;;;;;;;;;16.12;46.28;100109.38;5092202;28;855;-72
2023/10/17 14:38:29;;;;;;;;;;;;;;;15.94;46.83;100109.81;5092015;28;830;-72
2023/10/17 14:40:58;;;;;;;;;;;;;;;15.80;47.20;100102.53;5092114;28;846;-70
2023/10/17 14:43:25;;;;;;;;;;;;;;;15.74;47.52;100109.81;5092211;28;887;-70
2023/10/17 14:45:55;;;;;;;;;;;;;;;15.63;47.82;100112.78;5091983;28;799;-70
2023/10/17 14:48:21;;;;;;;;;;;;;;;15.49;48.20;100113.06;5090539;28;1298;-70
2023/10/17 14:50:49;;;;;;;;;;;;;;;15.42;48.32;100108.44;5090492;28;1323;-71
2023/10/17 14:53:19;;;;;;;;;;;;;;;15.38;48.73;100104.16;5092050;28;1881;-71
2023/10/17 14:55:46;;;;;;;;;;;;;;;15.34;49.08;100104.25;5090490;28;1139;-71
2023/10/17 14:58:13;;;;;;;;;;;;;;;15.27;49.74;100098.81;5090742;28;1326;-71
2023/10/17 15:00:39;;;;;;;;;;;;;;;15.18;50.13;100090.22;5090433;28;1416;-70
2023/10/17 15:03:05;;;;;;;;;;;;;;;15.13;50.67;100093.50;5091524;28;1373;-70
2023/10/17 15:05:32;;;;;;;;;;;;;;;15.06;51.18;100102.78;5091722;28;878;-70
2023/10/17 15:07:59;;;;;;;;;;;;;;;14.98;51.92;100104.91;5091660;28;821;-70
2023/10/17 15:10:25;;;;;;;;;;;;;;;14.90;52.40;100109.81;5091749;28;792;-70
2023/10/17 15:12:54;;;;;;;;;;;;;;;14.83;53.15;100109.13;5091550;28;1906;-70
2023/10/17 15:15:20;;;;;;;;;;;;;;;14.79;53.81;100114.00;5091614;28;867;-71
2023/10/17 15:17:49;;;;;;;;;;;;;;;14.75;54.25;100108.50;5091562;28;850;-70
2023/10/17 15:20:17;;;;;;;;;;;;;;;14.70;54.44;100114.53;5090137;28;1500;-70
2023/10/17 15:22:45;;;;;;;;;;;;;;;14.64;54.80;100105.91;5091586;28;851;-71
2023/10/17 15:25:15;;;;;;;;;;;;;;;14.54;55.33;100104.03;5090626;28;1167;-72
2023/10/17 15:27:45;;;;;;;;;;;;;;;14.48;55.48;100103.72;5091517;28;842;-71
2023/10/17 15:30:14;;;;;;;;;;;;;;;14.39;56.19;100105.47;5091409;28;831;-73
2023/10/17 15:32:41;;;;;;;;;;;;;;;14.29;57.20;100107.22;5091591;28;1886;-72
2023/10/17 15:35:13;;;;;;;;;;;;;;;14.20;57.72;100113.28;5091692;28;897;-71
2023/10/17 15:37:50;;;;;;;;;;;;;;;14.16;58.37;100109.78;5091762;28;855;-72
2023/10/17 15:40:19;;;;;;;;;;;;;;;14.11;58.53;100124.16;5094379;28;851;-73
2023/10/17 15:42:49;;;;;;;;;;;;;;;14.05;58.94;100115.50;5093822;28;1349;-72
2023/10/17 15:45:16;;;;;;;;;;;;;;;14.02;59.66;100118.34;5095335;28;1350;-71
2023/10/17 15:47:44;;;;;;;;;;;;;;;13.98;60.09;100110.03;5095258;28;1286;-70
2023/10/17 15:50:17;;;;;;;;;;;;;;;13.97;60.65;100116.00;5094062;28;1353;-71
2023/10/17 15:52:44;;;;;;;;;;;;;;;13.98;60.85;100112.81;5094976;28;1877;-70
2023/10/17 15:55:11;;;;;;;;;;;;;;;13.99;61.00;100110.81;5093605;28;1191;-70
2023/10/17 15:57:39;;;;;;;;;;;;;;;13.99;61.65;100117.16;5095084;28;830;-72
2023/10/17 16:00:13;;;;;;;;;;;;;;;13.98;61.92;100104.50;5093650;28;1317;-70
2023/10/17 16:02:40;;;;;;;;;;;;;;;13.98;62.61;100112.81;5094749;28;1421;-70
2023/10/17 16:05:10;;;;;;;;;;;;;;;13.97;63.00;100107.69;5093537;28;1335;-70
2023/10/17 16:07:38;;;;;;;;;;;;;;;13.97;63.28;100105.69;5093568;28;1310;-70
2023/10/17 16:10:04;;;;;;;;;;;;;;;13.95;63.22;100110.88;5094878;28;825;-70
2023/10/17 16:12:32;;;;;;;;;;;;;;;13.95;63.70;100105.31;5094589;28;1910;-71
2023/10/17 16:14:59;;;;;;;;;;;;;;;13.95;63.51;100107.31;5094784;28;1012;-70
2023/10/17 16:17:25;;;;;;;;;;;;;;;13.95;63.60;100110.88;5094468;28;815;-71
2023/10/17 16:19:52;;;;;;;;;;;;;;;13.95;63.22;100112.88;5094563;28;883;-70
2023/10/17 16:22:19;;;;;;;;;;;;;;;13.93;63.44;100115.28;5094428;28;818;-69
2023/10/17 16:24:46;;;;;;;;;;;;;;;13.92;63.32;100113.72;5094465;28;815;-68
2023/10/17 16:27:15;;;;;;;;;;;;;;;13.91;63.06;100112.13;5094297;28;917;-68
2023/10/17 16:29:42;;;;;;;;;;;;;;;13.87;63.46;100101.09;5093079;28;1312;-69
2023/10/17 16:32:09;;;;;;;;;;;;;;;13.89;63.19;100109.78;5094124;28;1948;-69
2023/10/17 16:34:35;;;;;;;;;;;;;;;13.89;63.07;100098.66;5094309;28;807;-71
2023/10/17 16:37:02;;;;;;;;;;;;;;;13.91;62.97;100106.56;5094161;28;824;-70
2023/10/17 16:39:31;;;;;;;;;;;;;;;13.90;62.79;100100.22;5094345;28;858;-69
2023/10/17 16:41:57;;;;;;;;;;;;;;;13.89;62.81;100091.13;5092920;28;1338;-69
2023/10/17 16:44:24;;;;;;;;;;;;;;;13.85;62.68;100084.81;5092678;28;1219;-70
2023/10/17 16:46:50;;;;;;;;;;;;;;;13.85;62.62;100079.25;5093947;28;819;-69
2023/10/17 16:49:17;;;;;;;;;;;;;;;13.84;62.46;100080.44;5093908;28;835;-69
2023/10/17 16:51:43;;;;;;;;;;;;;;;13.83;62.65;100092.00;5093759;28;1948;-68
2023/10/17 16:54:10;;;;;;;;;;;;;;;13.83;62.43;100078.91;5093836;28;811;-69
2023/10/17 16:56:36;;;;;;;;;;;;;;;13.84;62.54;100082.44;5093774;28;921;-69
2023/10/17 16:59:04;;;;;;;;;;;;;;;13.87;62.41;100081.63;5093776;28;891;-69
2023/10/17 17:01:31;;;;;;;;;;;;;;;13.92;62.30;100072.81;5093615;28;1104;-69
2023/10/17 17:03:57;;;;;;;;;;;;;;;13.93;62.37;100079.94;5093439;28;1303;-68
2023/10/17 17:06:24;;;;;;;;;;;;;;;13.91;62.41;100076.00;5093566;28;903;-69
2023/10/17 17:08:56;;;;;;;;;;;;;;;13.90;62.32;100078.00;5092203;28;1176;-69
2023/10/17 17:11:25;;;;;;;;;;;;;;;13.90;62.50;100078.00;5093824;28;827;-69
2023/10/17 17:13:52;;;;;;;;;;;;;;;13.88;62.48;100085.97;5093476;28;1918;-69
2023/10/17 17:16:19;;;;;;;;;;;;;;;13.82;62.95;100080.09;5092177;28;1502;-68
2023/10/17 17:18:45;;;;;;;;;;;;;;;13.79;63.69;100078.16;5093406;28;1021;-69
2023/10/17 17:21:11;;;;;;;;;;;;;;;13.76;64.07;100076.22;5093420;28;863;-68
2023/10/17 17:23:39;;;;;;;;;;;;;;;13.77;64.47;100085.34;5093486;28;866;-69
2023/10/17 17:26:07;;;;;;;;;;;;;;;13.75;64.86;100080.19;5093418;28;925;-69
2023/10/17 17:28:33;;;;;;;;;;;;;;;13.74;65.34;100075.03;5093128;28;886;-68
2023/10/17 17:31:04;;;;;;;;;;;;;;;13.73;65.60;100067.94;5093302;28;850;-70
2023/10/17 17:33:30;;;;;;;;;;;;;;;13.72;66.10;100069.13;5093103;28;1886;-69
2023/10/17 17:35:56;;;;;;;;;;;;;;;13.72;66.29;100069.13;5092976;28;855;-69
2023/10/17 17:38:23;;;;;;;;;;;;;;;13.73;66.16;100068.72;5093105;28;855;-68
2023/10/17 17:40:49;;;;;;;;;;;;;;;13.74;65.85;100073.06;5093277;28;855;-69
2023/10/17 17:43:16;;;;;;;;;;;;;;;13.79;65.80;100071.81;5092988;28;898;-68
2023/10/17 17:45:43;;;;;;;;;;;;;;;13.79;65.94;100061.47;5092863;28;921;-69
2023/10/17 17:48:10;;;;;;;;;;;;;;;13.77;65.86;100068.66;5092835;28;848;-68
2023/10/17 17:50:39;;;;;;;;;;;;;;;13.54;65.79;100034.03;5092787;28;886;-68
2023/10/17 17:53:05;;;;;;;;;;;;;;;13.79;66.09;100061.47;5092627;28;1945;-69
2023/10/17 17:55:38;;;;;;;;;;;;;;;13.79;65.88;100055.94;5092715;28;843;-69
2023/10/17 17:58:06;;;;;;;;;;;;;;;13.79;66.01;100053.16;5092615;28;894;-69
2023/10/17 18:00:33;;;;;;;;;;;;;;;13.84;66.22;100061.00;5092667;28;835;-69
2023/10/17 18:03:00;;;;;;;;;;;;;;;13.82;66.24;100063.41;5092035;28;1273;-69
2023/10/17 18:05:26;;;;;;;;;;;;;;;13.83;66.34;100064.22;5092504;28;835;-69
2023/10/17 18:07:52;;;;;;;;;;;;;;;13.84;66.29;100065.78;5092493;28;873;-68
2023/10/17 18:10:19;;;;;;;;;;;;;;;13.84;66.37;100066.56;5092493;28;861;-69
2023/10/17 18:12:45;;;;;;;;;;;;;;;13.82;66.66;100070.97;5092295;28;1963;-68
2023/10/17 18:15:12;;;;;;;;;;;;;;;13.78;66.63;100073.78;5092281;28;855;-69
2023/10/17 18:17:39;;;;;;;;;;;;;;;13.80;66.59;100070.59;5092319;28;891;-70
2023/10/17 18:20:08;;;;;;;;;;;;;;;13.80;66.65;100067.81;5092307;28;890;-70
2023/10/17 18:22:35;;;;;;;;;;;;;;;13.82;66.28;100068.19;5090951;28;1195;-69
2023/10/17 18:25:01;;;;;;;;;;;;;;;13.84;66.18;100074.13;5092130;28;833;-70
2023/10/17 18:27:28;;;;;;;;;;;;;;;13.85;66.40;100090.38;5092316;28;874;-69
2023/10/17 18:29:57;;;;;;;;;;;;;;;13.88;65.77;100081.19;5092046;28;827;-69
2023/10/17 18:32:24;;;;;;;;;;;;;;;13.94;65.26;100081.53;5092176;28;1889;-69
2023/10/17 18:34:50;;;;;;;;;;;;;;;13.97;65.23;100077.91;5092000;28;914;-69
2023/10/17 18:37:17;;;;;;;;;;;;;;;13.98;65.10;100075.91;5092049;28;827;-70
2023/10/17 18:39:44;;;;;;;;;;;;;;;13.99;64.74;100078.25;5091960;28;855;-70
2023/10/17 18:42:11;;;;;;;;;;;;;;;14.00;64.58;100076.28;5091981;28;858;-70
2023/10/17 18:44:38;;;;;;;;;;;;;;;14.00;64.81;100071.50;5092092;28;905;-70
2023/10/17 18:47:05;;;;;;;;;;;;;;;13.97;64.61;100083.44;5091995;28;917;-70
2023/10/17 18:49:32;;;;;;;;;;;;;;;13.97;64.51;100080.66;5091911;28;835;-70
2023/10/17 18:51:59;;;;;;;;;;;;;;;13.96;64.46;100086.66;5091851;28;1881;-70
2023/10/17 18:54:25;;;;;;;;;;;;;;;13.97;64.51;100075.13;5092083;28;866;-69
2023/10/17 18:56:55;;;;;;;;;;;;;;;13.95;64.51;100080.31;5092019;28;830;-68
2023/10/17 18:59:21;;;;;;;;;;;;;;;13.97;64.39;100074.34;5091852;28;827;-70
2023/10/17 19:01:48;;;;;;;;;;;;;;;13.96;64.63;100076.34;5091640;28;940;-69
2023/10/17 19:04:14;;;;;;;;;;;;;;;13.97;64.70;100079.91;5090367;28;1538;-70
2023/10/17 19:06:42;;;;;;;;;;;;;;;13.93;64.75;100071.59;5090404;28;1191;-68
2023/10/17 19:09:10;;;;;;;;;;;;;;;13.94;64.41;100069.63;5091733;28;945;-69
2023/10/17 19:11:37;;;;;;;;;;;;;;;13.94;64.62;100073.19;5090429;28;1297;-69
2023/10/17 19:14:04;;;;;;;;;;;;;;;13.91;64.66;100084.34;5092649;28;1886;-68
2023/10/17 19:16:31;;;;;;;;;;;;;;;13.87;64.81;100074.06;5095678;28;831;-69
2023/10/17 19:18:57;;;;;;;;;;;;;;;13.85;65.01;100075.72;5095817;28;917;-69
2023/10/17 19:21:24;;;;;;;;;;;;;;;13.83;65.29;100075.34;5095612;28;811;-68
2023/10/17 19:23:51;;;;;;;;;;;;;;;13.84;65.57;100069.34;5094343;28;1513;-69
2023/10/17 19:26:18;;;;;;;;;;;;;;;13.84;65.29;100085.22;5095616;28;807;-69
2023/10/17 19:28:45;;;;;;;;;;;;;;;13.85;64.96;100072.94;5095445;28;913;-70
2023/10/17 19:31:12;;;;;;;;;;;;;;;13.84;65.38;100069.34;5095550;28;815;-69
2023/10/17 19:33:39;;;;;;;;;;;;;;;13.83;65.20;100062.22;5095301;28;1886;-69
2023/10/17 19:36:05;;;;;;;;;;;;;;;13.82;65.27;100066.19;5095418;28;922;-70
2023/10/17 19:38:32;;;;;;;;;;;;;;;13.82;65.28;100065.41;5095347;28;811;-69
2023/10/17 19:40:58;;;;;;;;;;;;;;;13.81;65.57;100058.31;5095388;28;855;-69
2023/10/17 19:43:26;;;;;;;;;;;;;;;13.79;65.72;100061.47;5095215;28;831;-68
2023/10/17 19:46:00;;;;;;;;;;;;;;;13.82;65.24;100057.84;5095222;28;875;-69
2023/10/17 19:48:27;;;;;;;;;;;;;;;13.82;65.14;100054.31;5093826;28;1176;-67
2023/10/17 19:50:54;;;;;;;;;;;;;;;13.85;65.04;100059.81;5095140;28;894;-69
2023/10/17 19:53:20;;;;;;;;;;;;;;;13.86;64.81;100050.25;5094980;28;1885;-68
2023/10/17 19:55:48;;;;;;;;;;;;;;;13.87;64.95;100049.06;5094863;28;812;-69
2023/10/17 19:58:15;;;;;;;;;;;;;;;13.87;64.66;100039.97;5095012;28;898;-66
2023/10/17 20:00:41;;;;;;;;;;;;;;;13.87;64.49;100051.06;5093483;28;1333;-69
2023/10/17 20:03:11;;;;;;;;;;;;;;;13.89;64.17;100048.66;5094729;28;1216;-69
2023/10/17 20:05:40;;;;;;;;;;;;;;;13.89;64.45;100048.66;5094751;28;906;-69
2023/10/17 20:08:07;;;;;;;;;;;;;;;13.91;64.12;100048.22;5094913;28;1252;-69
2023/10/17 20:10:35;;;;;;;;;;;;;;;13.92;63.65;100039.47;5094669;28;1245;-70
2023/10/17 20:13:05;;;;;;;;;;;;;;;13.95;63.34;100044.19;5093649;28;1901;-69
2023/10/17 20:15:31;;;;;;;;;;;;;;;13.95;63.30;100040.63;5095074;28;819;-70
2023/10/17 20:17:58;;;;;;;;;;;;;;;13.93;63.23;100035.47;5094771;28;832;-69
2023/10/17 20:20:25;;;;;;;;;;;;;;;13.96;63.33;100039.44;5094916;28;921;-69
2023/10/17 20:22:52;;;;;;;;;;;;;;;13.98;62.88;100031.47;5094510;28;867;-68
2023/10/17 20:25:18;;;;;;;;;;;;;;;13.98;63.21;100025.91;5094092;28;815;-68
2023/10/17 20:27:45;;;;;;;;;;;;;;;13.98;62.47;100029.47;5094495;28;839;-69
2023/10/17 20:30:12;;;;;;;;;;;;;;;13.97;62.57;100025.09;5094536;28;814;-69
2023/10/17 20:32:39;;;;;;;;;;;;;;;13.74;62.97;99998.06;5094674;28;1878;-69
2023/10/17 20:35:06;;;;;;;;;;;;;;;13.96;62.91;100023.53;5094473;28;846;-69
2023/10/17 20:37:34;;;;;;;;;;;;;;;13.98;63.00;100026.69;5093021;28;1308;-69
2023/10/17 20:40:11;;;;;;;;;;;;;;;14.00;63.31;100029.06;5094224;28;811;-69
2023/10/17 20:42:38;;;;;;;;;;;;;;;14.02;63.01;100024.63;5094074;28;906;-67
2023/10/17 20:45:09;;;;;;;;;;;;;;;14.01;63.38;100025.06;5094253;28;836;-69
2023/10/17 20:47:39;;;;;;;;;;;;;;;14.01;63.40;100023.03;5092761;28;1237;-68
2023/10/17 20:50:04;;;;;;;;;;;;;;;14.01;63.45;100023.03;5094016;28;867;-67
2023/10/17 20:52:31;;;;;;;;;;;;;;;14.02;63.75;100027.41;5093928;28;1877;-70
2023/10/17 20:54:58;;;;;;;;;;;;;;;14.02;63.95;100023.84;5092559;28;1529;-69
2023/10/17 20:57:24;;;;;;;;;;;;;;;14.00;63.99;100018.72;5093732;28;958;-69
2023/10/17 20:59:51;;;;;;;;;;;;;;;14.01;64.05;100019.50;5092409;28;1197;-69
2023/10/17 21:02:20;;;;;;;;;;;;;;;14.01;64.15;100022.28;5093699;28;1212;-70
2023/10/17 21:04:47;;;;;;;;;;;;;;;13.99;64.86;100010.78;5093625;28;859;-69
2023/10/17 21:07:13;;;;;;;;;;;;;;;14.01;65.17;100014.72;5093639;28;882;-70
2023/10/17 21:09:40;;;;;;;;;;;;;;;14.01;65.67;100016.72;5092259;28;827;-69
2023/10/17 21:12:08;;;;;;;;;;;;;;;13.99;66.12;100019.13;5093397;28;1917;-68
2023/10/17 21:14:34;;;;;;;;;;;;;;;13.97;66.70;100015.97;5093376;28;975;-69
2023/10/17 21:17:01;;;;;;;;;;;;;;;13.95;66.79;100007.28;5093436;28;979;-68
2023/10/17 21:19:27;;;;;;;;;;;;;;;13.95;67.09;100012.84;5093397;28;829;-68
2023/10/17 21:21:54;;;;;;;;;;;;;;;13.93;67.07;100004.13;5093272;28;969;-68
2023/10/17 21:24:21;;;;;;;;;;;;;;;13.94;66.98;100000.94;5092030;28;1287;-70
2023/10/17 21:26:50;;;;;;;;;;;;;;;13.93;66.98;100002.13;5093498;28;881;-69
2023/10/17 21:29:17;;;;;;;;;;;;;;;13.93;67.40;99996.56;5093214;28;910;-69
2023/10/17 21:31:43;;;;;;;;;;;;;;;13.92;67.80;99997.00;5093220;28;859;-68
2023/10/17 21:34:10;;;;;;;;;;;;;;;13.58;68.20;99950.69;5093040;28;2277;-68
2023/10/17 21:36:37;;;;;;;;;;;;;;;13.88;68.55;99991.50;5092224;28;871;-68
2023/10/17 21:39:06;;;;;;;;;;;;;;;13.87;68.76;99987.16;5093055;28;911;-69
2023/10/17 21:41:33;;;;;;;;;;;;;;;13.85;68.79;99986.81;5092889;28;843;-69
2023/10/17 21:44:01;;;;;;;;;;;;;;;13.83;69.20;99978.09;5091590;28;1452;-68
2023/10/17 21:46:27;;;;;;;;;;;;;;;13.83;69.75;99983.66;5092838;28;1256;-68
2023/10/17 21:48:54;;;;;;;;;;;;;;;13.83;70.55;99987.22;5092765;28;851;-68
2023/10/17 21:51:21;;;;;;;;;;;;;;;13.82;70.68;99985.63;5092997;28;886;-68
2023/10/17 21:53:48;;;;;;;;;;;;;;;13.81;71.31;99986.84;5092642;28;1959;-68
2023/10/17 21:56:15;;;;;;;;;;;;;;;13.82;71.47;99982.06;5092708;28;825;-68
2023/10/17 21:58:43;;;;;;;;;;;;;;;13.81;72.06;99986.06;5092537;28;817;-68
2023/10/17 22:01:14;;;;;;;;;;;;;;;13.80;72.48;99996.38;5092834;28;1176;-69
2023/10/17 22:03:41;;;;;;;;;;;;;;;13.79;73.01;99994.81;5092218;28;1266;-68
2023/10/17 22:06:13;;;;;;;;;;;;;;;13.76;73.67;99992.09;5092752;28;866;-70
2023/10/17 22:08:40;;;;;;;;;;;;;;;13.72;74.27;99997.72;5092597;28;886;-69
2023/10/17 22:11:16;;;;;;;;;;;;;;;13.73;75.02;99987.38;5092370;28;922;-70
2023/10/17 22:13:44;;;;;;;;;;;;;;;13.76;75.43;99986.53;5090991;28;1909;-68
2023/10/17 22:16:11;;;;;;;;;;;;;;;13.80;75.46;99993.59;5092338;28;894;-68
2023/10/17 22:18:37;;;;;;;;;;;;;;;13.83;75.82;99989.22;5092527;28;858;-70
2023/10/17 22:21:05;;;;;;;;;;;;;;;13.84;76.52;99986.00;5092280;28;890;-69
2023/10/17 22:23:36;;;;;;;;;;;;;;;13.91;77.03;99993.44;5092249;28;834;-68
2023/10/17 22:26:09;;;;;;;;;;;;;;;13.99;77.86;99996.91;5092407;28;922;-68
2023/10/17 22:28:36;;;;;;;;;;;;;;;14.03;79.21;99989.28;5092123;28;850;-68
2023/10/17 22:31:02;;;;;;;;;;;;;;;14.07;79.53;99988.03;5092242;28;894;-67
2023/10/17 22:33:29;;;;;;;;;;;;;;;14.09;79.71;99987.59;5092104;28;1945;-68
2023/10/17 22:35:55;;;;;;;;;;;;;;;14.08;80.15;99999.91;5092402;28;796;-68
2023/10/17 22:38:22;;;;;;;;;;;;;;;14.00;77.81;100015.16;5090787;28;1394;-68
2023/10/17 22:40:49;;;;;;;;;;;;;;;13.72;75.16;100016.34;5091877;28;874;-68
2023/10/17 22:43:16;;;;;;;;;;;;;;;13.47;74.68;100028.59;5091911;28;919;-70
2023/10/17 22:45:43;;;;;;;;;;;;;;;13.30;74.82;100024.84;5092201;28;824;-70
2023/10/17 22:48:10;;;;;;;;;;;;;;;13.17;75.62;100029.34;5092115;28;803;-70
2023/10/17 22:50:37;;;;;;;;;;;;;;;13.03;75.73;100027.50;5090618;28;2274;-69
2023/10/17 22:53:07;;;;;;;;;;;;;;;12.91;76.03;100030.81;5091860;28;1886;-68
2023/10/17 22:55:34;;;;;;;;;;;;;;;12.82;76.61;100034.06;5092044;28;824;-68
2023/10/17 22:58:01;;;;;;;;;;;;;;;12.75;77.01;100029.38;5090380;28;1481;-68
2023/10/17 23:00:28;;;;;;;;;;;;;;;12.75;78.08;100034.94;5092097;28;847;-68
2023/10/17 23:02:54;;;;;;;;;;;;;;;12.79;78.58;100027.38;5091712;28;1380;-68
2023/10/17 23:05:21;;;;;;;;;;;;;;;12.84;78.95;100037.22;5091735;28;816;-70
2023/10/17 23:07:48;;;;;;;;;;;;;;;12.82;79.75;100040.44;5091724;28;843;-70
2023/10/17 23:10:15;;;;;;;;;;;;;;;12.75;82.76;100036.94;5091696;28;933;-70
2023/10/17 23:12:42;;;;;;;;;;;;;;;12.71;86.64;100031.41;5091652;28;1914;-68
2023/10/17 23:15:10;;;;;;;;;;;;;;;12.62;94.35;100037.44;5091691;28;863;-68
2023/10/17 23:17:37;;;;;;;;;;;;;;;12.41;99.27;100029.31;5091628;28;866;-68
2023/10/17 23:20:06;;;;;;;;;;;;;;;12.16;100.00;100037.81;5091568;28;879;-68
2023/10/17 23:22:34;;;;;;;;;;;;;;;11.76;100.00;100038.09;5091682;28;827;-68
2023/10/17 23:25:01;;;;;;;;;;;;;;;11.35;100.00;100035.13;5091571;28;949;-69
2023/10/17 23:27:28;;;;;;;;;;;;;;;11.06;100.00;100034.44;5091616;28;863;-67
2023/10/17 23:29:55;;;;;;;;;;;;;;;10.93;100.00;100043.16;5091613;28;903;-66
2023/10/17 23:32:23;;;;;;;;;;;;;;;11.00;100.00;100036.84;5091459;28;1890;-67
2023/10/17 23:34:50;;;;;;;;;;;;;;;11.02;100.00;100032.47;5091511;28;895;-66
2023/10/17 23:37:17;;;;;;;;;;;;;;;10.99;100.00;100032.50;5090153;28;1174;-66
2023/10/17 23:39:44;;;;;;;;;;;;;;;10.93;100.00;100034.09;5091385;28;859;-67
2023/10/17 23:42:11;;;;;;;;;;;;;;;10.95;100.00;100034.47;5091502;28;914;-66
2023/10/17 23:44:38;;;;;;;;;;;;;;;10.95;100.00;100035.25;5090242;28;1354;-66
2023/10/17 23:47:11;;;;;;;;;;;;;;;11.04;100.00;100029.31;5091390;28;858;-66
2023/10/17 23:49:38;;;;;;;;;;;;;;;11.04;100.00;100032.06;5091447;28;826;-66
2023/10/17 23:52:07;;;;;;;;;;;;;;;11.09;100.00;100031.66;5091191;28;1954;-65
2023/10/17 23:54:33;;;;;;;;;;;;;;;11.13;100.00;100029.66;5091395;28;1193;-65
2023/10/17 23:57:00;;;;;;;;;;;;;;;11.09;100.00;100023.34;5091371;28;891;-66
2023/10/17 23:59:27;;;;;;;;;;;;;;;11.09;100.00;100031.66;5091262;28;863;-66
